Auburn University, Alabama
Current Conditions -  °F | °C
As of 9:15 PM on Tuesday 25 Nov 2014 (Local Time) from KAUO Reporting Station
Overcast Overcast  
Wind Chill: 46°   Ceiling: 9000
Heat Index: 48°   Visibility: 10mi
Dew Point: 37°   Wind: 5mph
Humidity: 66%   Direction: 300°WNW
Pressure: 30.1"   Gusts: NA
Location:  32.61°N, 85.48°W
Report Text: KAUO 260315Z AUTO 30004KT 10SM FEW080 OVC090 09/03 A3010 RMK AO1
Loading
Personal Weather Stations






























Interactive Weather Map New forecast layout! Learn more

10-Day Weather Forecast

Advertisements
Track Severe Weather on mobile